Time;durP1;ratioP1;P1;durP2;ratioP2;P2;SDS_P1;SDS_P2;PMS_P1;PMS_P2;Temp;Humidity;BMP_temperature;BMP_pressure;BME280_temperature;BME280_humidity;BME280_pressure;Samples;Min_cycle;Max_cycle;Signal;HPM_P1;HPM_P2
2024/02/11 00:00:31;;;;;;;;;;;17.60;66.50;;;;;;5013541;28;20126;-70
2024/02/11 00:02:56;;;;;;;;;;;17.70;70.20;;;;;;5013430;28;19910;-70
2024/02/11 00:05:28;;;;;;;;;;;17.60;70.60;;;;;;5013462;28;19922;-70
2024/02/11 00:07:55;;;;;;;;;;;17.60;66.30;;;;;;5013710;28;19921;-70
2024/02/11 00:10:21;;;;;;;;;;;17.70;70.40;;;;;;5013359;28;19910;-70
2024/02/11 00:12:47;;;;;;;;;;;17.60;70.50;;;;;;5013557;28;19916;-70
2024/02/11 00:15:13;;;;;;;;;;;17.60;70.50;;;;;;5013287;28;19913;-70
2024/02/11 00:17:39;;;;;;;;;;;17.60;70.50;;;;;;5013241;28;20357;-70
2024/02/11 00:20:13;;;;;;;;;;;17.70;70.60;;;;;;5013151;28;20012;-70
2024/02/11 00:22:40;;;;;;;;;;;17.70;69.10;;;;;;5013202;28;19914;-70
2024/02/11 00:25:10;;;;;;;;;;;17.70;70.40;;;;;;5013135;28;19909;-70
2024/02/11 00:27:42;;;;;;;;;;;17.60;70.20;;;;;;5013534;28;19924;-70
2024/02/11 00:30:08;;;;;;;;;;;17.70;66.70;;;;;;5012958;28;19914;-70
2024/02/11 00:32:34;;;;;;;;;;;17.70;70.00;;;;;;5012934;28;19916;-70
2024/02/11 00:35:00;;;;;;;;;;;17.70;70.60;;;;;;5013237;28;19992;-70
2024/02/11 00:37:29;;;;;;;;;;;17.70;71.10;;;;;;5012812;28;19948;-70
2024/02/11 00:39:56;;;;;;;;;;;17.70;70.70;;;;;;5013390;28;19909;-84
2024/02/11 00:42:27;;;;;;;;;;;17.70;71.10;;;;;;5012859;28;19948;-84
2024/02/11 00:44:54;;;;;;;;;;;17.70;70.90;;;;;;5012902;28;19924;-84
2024/02/11 00:47:21;;;;;;;;;;;17.70;71.10;;;;;;5013094;28;19917;-84
2024/02/11 00:49:47;;;;;;;;;;;17.70;71.10;;;;;;5013135;28;19909;-84
2024/02/11 00:52:15;;;;;;;;;;;17.70;70.90;;;;;;5013137;28;19940;-83
2024/02/11 00:54:41;;;;;;;;;;;17.70;70.90;;;;;;5011909;28;19917;-85
2024/02/11 00:57:08;;;;;;;;;;;17.70;71.10;;;;;;5013032;28;19917;-83
2024/02/11 00:59:34;;;;;;;;;;;17.70;71.00;;;;;;5013147;28;19909;-70
2024/02/11 01:02:00;;;;;;;;;;;17.80;70.40;;;;;;5012573;28;19941;-70
2024/02/11 01:04:26;;;;;;;;;;;17.80;70.90;;;;;;5012662;28;20295;-70
2024/02/11 01:06:52;;;;;;;;;;;17.80;70.80;;;;;;5012423;28;20344;-70
2024/02/11 01:09:19;;;;;;;;;;;17.70;70.90;;;;;;5012451;28;19917;-70
2024/02/11 01:11:48;;;;;;;;;;;17.70;70.80;;;;;;5012099;28;19909;-70
2024/02/11 01:14:14;;;;;;;;;;;17.80;70.80;;;;;;5013022;28;19979;-70
2024/02/11 01:16:39;;;;;;;;;;;17.70;70.70;;;;;;5012519;28;20388;-70
2024/02/11 01:19:05;;;;;;;;;;;17.70;70.90;;;;;;5012498;28;19921;-70
2024/02/11 01:21:31;;;;;;;;;;;17.90;70.80;;;;;;5012475;28;19916;-70
2024/02/11 01:23:56;;;;;;;;;;;17.70;70.80;;;;;;5012583;28;20028;-84
2024/02/11 01:26:22;;;;;;;;;;;17.70;70.80;;;;;;5012613;28;19917;-83
2024/02/11 01:28:47;;;;;;;;;;;17.80;71.00;;;;;;5012586;28;19940;-84
2024/02/11 01:31:13;;;;;;;;;;;17.70;71.10;;;;;;5012504;28;20008;-84
2024/02/11 01:33:38;;;;;;;;;;;17.70;70.80;;;;;;5012503;28;19948;-83
2024/02/11 01:36:04;;;;;;;;;;;17.70;70.90;;;;;;5012472;28;19945;-84
2024/02/11 01:38:30;;;;;;;;;;;17.70;70.40;;;;;;5012340;28;20296;-84
2024/02/11 01:40:55;;;;;;;;;;;17.70;70.60;;;;;;5012348;28;19909;-84
2024/02/11 01:43:21;;;;;;;;;;;17.70;70.90;;;;;;5012895;28;20398;-84
2024/02/11 01:45:48;;;;;;;;;;;18.00;70.90;;;;;;5012378;28;19917;-84
2024/02/11 01:48:13;;;;;;;;;;;17.70;71.00;;;;;;5012366;28;20011;-83
2024/02/11 01:50:39;;;;;;;;;;;17.60;70.90;;;;;;5012365;28;19914;-84
2024/02/11 01:53:06;;;;;;;;;;;17.70;70.90;;;;;;5012487;28;19910;-84
2024/02/11 01:55:33;;;;;;;;;;;17.70;71.00;;;;;;5012450;28;20372;-70
2024/02/11 01:57:59;;;;;;;;;;;17.70;71.00;;;;;;5012550;28;20261;-70
2024/02/11 02:00:25;;;;;;;;;;;17.90;71.00;;;;;;5012502;28;19909;-70
2024/02/11 02:02:54;;;;;;;;;;;17.80;70.40;;;;;;5012463;28;19932;-70
2024/02/11 02:05:20;;;;;;;;;;;17.70;71.00;;;;;;5012147;28;19925;-70
2024/02/11 02:07:46;;;;;;;;;;;17.70;70.80;;;;;;5012286;28;19940;-70
2024/02/11 02:10:12;;;;;;;;;;;17.70;70.80;;;;;;5012147;28;20431;-70
2024/02/11 02:12:39;;;;;;;;;;;17.50;70.80;;;;;;5012411;28;19966;-70
2024/02/11 02:15:05;;;;;;;;;;;17.70;70.90;;;;;;5012236;28;19910;-83
2024/02/11 02:17:31;;;;;;;;;;;17.70;69.30;;;;;;5012300;28;19909;-82
2024/02/11 02:19:56;;;;;;;;;;;17.70;70.80;;;;;;5012096;28;20376;-83
2024/02/11 02:22:22;;;;;;;;;;;17.70;71.00;;;;;;5012065;28;19909;-82
2024/02/11 02:24:50;;;;;;;;;;;18.00;71.60;;;;;;5015106;28;19910;-83
2024/02/11 02:27:16;;;;;;;;;;;17.60;67.30;;;;;;5015554;28;20024;-83
2024/02/11 02:29:44;;;;;;;;;;;17.70;70.90;;;;;;5016046;28;19909;-70
2024/02/11 02:32:11;;;;;;;;;;;17.60;70.80;;;;;;5015747;28;19984;-70
2024/02/11 02:34:37;;;;;;;;;;;17.70;70.80;;;;;;5015633;28;19910;-70
2024/02/11 02:37:03;;;;;;;;;;;17.70;70.70;;;;;;5015356;28;20004;-70
2024/02/11 02:39:28;;;;;;;;;;;17.70;70.30;;;;;;5015388;28;19945;-70
2024/02/11 02:41:54;;;;;;;;;;;17.70;70.80;;;;;;5015357;28;19956;-70
2024/02/11 02:44:19;;;;;;;;;;;17.70;70.90;;;;;;5015335;28;19909;-70
2024/02/11 02:46:45;;;;;;;;;;;17.60;70.60;;;;;;5015163;28;20380;-70
2024/02/11 02:49:12;;;;;;;;;;;17.70;70.90;;;;;;5015222;28;19979;-70
2024/02/11 02:51:39;;;;;;;;;;;17.70;70.60;;;;;;5015221;28;20000;-70
2024/02/11 02:54:05;;;;;;;;;;;17.70;70.90;;;;;;5015391;28;19932;-70
2024/02/11 02:56:32;;;;;;;;;;;17.70;70.60;;;;;;5015313;28;19979;-70
2024/02/11 02:58:57;;;;;;;;;;;17.70;70.70;;;;;;5015474;28;19913;-70
2024/02/11 03:01:26;;;;;;;;;;;17.70;70.90;;;;;;5014982;28;19915;-69
2024/02/11 03:03:52;;;;;;;;;;;17.70;70.20;;;;;;5014925;28;19909;-70
2024/02/11 03:06:19;;;;;;;;;;;17.70;71.00;;;;;;5014629;28;19933;-70
